• Join FlightAware (Why Join?)
  • Login
  • US Flag GB Flag 
19:25 EDT


 

Airport Tracker/Info


-or-


 

Live Flight TrackerFlight Track Log ✈ AVN30 ✈ 17-Oct-2013 ✈ NVVV / VLI - YMML / MEL

Flight Track Log - Related Links

Times and Time Zones

All times are in EDT time to prevent confusion due to time zone crossing. See the AVN30 flight status page for this flight to view local times or setup timezone preferences in your user account.

Time Position Orientation Groundspeed Altitude Reporting Facility
EDT Latitude Longitude Course Direction KTS MPH feet Rate Location/Type
01:35 -18.0699 167.8065 233° Southwest  Level FlightAware Approximate
01:36 -18.1438 167.7036 233° Southwest  Level FlightAware Approximate
01:37 -18.2177 167.6006 233° Southwest  Level FlightAware Approximate
01:38 -18.2916 167.4975 233° Southwest  Level FlightAware Approximate
01:39 -18.3654 167.3944 233° Southwest  Level FlightAware Approximate
01:40 -18.4391 167.2911 233° Southwest  Level FlightAware Approximate
01:41 -18.5128 167.1878 233° Southwest  Level FlightAware Approximate
01:42 -18.5864 167.0843 233° Southwest  Level FlightAware Approximate
01:43 -18.6600 166.9808 233° Southwest  Level FlightAware Approximate
01:44 -18.7335 166.8772 233° Southwest  Level FlightAware Approximate
01:45 -18.8069 166.7735 233° Southwest  Level FlightAware Approximate
01:46 -18.8803 166.6697 233° Southwest  Level FlightAware Approximate
01:47 -18.9536 166.5658 233° Southwest  Level FlightAware Approximate
01:48 -19.0269 166.4618 233° Southwest  Level FlightAware Approximate
01:49 -19.1001 166.3577 233° Southwest  Level FlightAware Approximate
01:50 -19.1733 166.2536 233° Southwest  Level FlightAware Approximate
01:51 -19.2464 166.1493 233° Southwest  Level FlightAware Approximate
01:52 -19.3194 166.0450 233° Southwest  Level FlightAware Approximate
01:53 -19.3924 165.9405 233° Southwest  Level FlightAware Approximate
01:54 -19.4653 165.8360 233° Southwest  Level FlightAware Approximate
01:55 -19.5382 165.7314 234° Southwest  Level FlightAware Approximate
01:56 -19.6110 165.6266 234° Southwest  Level FlightAware Approximate
01:57 -19.6837 165.5218 234° Southwest  Level FlightAware Approximate
01:58 -19.7564 165.4169 234° Southwest  Level FlightAware Approximate
01:59 -19.8290 165.3119 234° Southwest  Level FlightAware Approximate
02:00 -19.9016 165.2068 234° Southwest  Level FlightAware Approximate
02:01 -19.9741 165.1016 234° Southwest  Level FlightAware Approximate
02:02 -20.0465 164.9963 234° Southwest  Level FlightAware Approximate
02:03 -20.1189 164.8909 234° Southwest  Level FlightAware Approximate
02:04 -20.1912 164.7854 234° Southwest  Level FlightAware Approximate
02:05 -20.2635 164.6798 234° Southwest  Level FlightAware Approximate
02:06 -20.3356 164.5741 234° Southwest  Level FlightAware Approximate
02:07 -20.4077 164.4683 234° Southwest  Level FlightAware Approximate
02:08 -20.4798 164.3624 234° Southwest  Level FlightAware Approximate
02:09 -20.5518 164.2564 234° Southwest  Level FlightAware Approximate
02:10 -20.6237 164.1503 234° Southwest  Level FlightAware Approximate
02:11 -20.6956 164.0442 234° Southwest  Level FlightAware Approximate
02:12 -20.7674 163.9379 234° Southwest  Level FlightAware Approximate
02:13 -20.8391 163.8315 234° Southwest  Level FlightAware Approximate
02:14 -20.9108 163.7250 234° Southwest  Level FlightAware Approximate
02:15 -20.9824 163.6184 234° Southwest  Level FlightAware Approximate
02:16 -21.0539 163.5117 234° Southwest  Level FlightAware Approximate
02:17 -21.1254 163.4049 234° Southwest  Level FlightAware Approximate
02:18 -21.1968 163.2980 234° Southwest  Level FlightAware Approximate
02:18 -21.1705 163.2802 234° Southwest 36,000  Level Aus ATC (Calculated)
02:18 -21.2096 163.2223 234° Southwest 36,000  Level Aus ATC (Calculated)
02:20 -21.3188 163.0607 234° Southwest  Level FlightAware Approximate
02:21 -21.3863 162.9607 234° Southwest  Level FlightAware Approximate
02:21 -21.4406 162.8800 234° Southwest 36,000  Level Aus ATC (Calculated)
02:23 -21.5506 162.7162 234° Southwest  Level FlightAware Approximate
02:24 -21.6179 162.6158 234° Southwest  Level FlightAware Approximate
02:24 -21.6146 162.6207 234° Southwest 36,000  Level Aus ATC (Calculated)
02:24 -21.6787 162.5249 234° Southwest 36,000  Level Aus ATC (Calculated)
02:26 -21.7615 162.4009 234° Southwest  Level FlightAware Approximate
02:27 -21.8286 162.3002 234° Southwest  Level FlightAware Approximate
02:28 -21.8956 162.1995 234° Southwest  Level FlightAware Approximate
02:29 -21.9625 162.0986 234° Southwest  Level FlightAware Approximate
02:30 -22.0294 161.9977 234° Southwest  Level FlightAware Approximate
02:31 -22.0962 161.8966 234° Southwest  Level FlightAware Approximate
02:32 -22.1630 161.7955 235° Southwest  Level FlightAware Approximate
02:33 -22.2297 161.6942 235° Southwest  Level FlightAware Approximate
02:34 -22.2963 161.5929 235° Southwest  Level FlightAware Approximate
02:35 -22.3629 161.4914 235° Southwest  Level FlightAware Approximate
02:36 -22.4294 161.3899 235° Southwest  Level FlightAware Approximate
02:37 -22.4959 161.2883 235° Southwest  Level FlightAware Approximate
02:37 -22.6031 161.1238 235° Southwest 36,000  Level Aus ATC (Calculated)
02:38 -22.5623 161.1866 235° Southwest  Level FlightAware Approximate
02:38 -22.6356 161.0739 235° Southwest 36,000  Level Aus ATC (Calculated)
02:39 -22.6738 161.0151 235° Southwest  Level FlightAware Approximate
02:40 -22.7439 160.9071 235° Southwest  Level FlightAware Approximate
02:41 -22.8088 160.8070 235° Southwest  Level FlightAware Approximate
02:42 -22.8736 160.7067 235° Southwest  Level FlightAware Approximate
02:43 -22.9384 160.6064 235° Southwest  Level FlightAware Approximate
02:44 -23.0031 160.5059 235° Southwest  Level FlightAware Approximate
02:45 -23.0678 160.4054 235° Southwest  Level FlightAware Approximate
02:46 -23.1323 160.3047 235° Southwest  Level FlightAware Approximate
02:47 -23.1968 160.2040 235° Southwest  Level FlightAware Approximate
02:48 -23.2613 160.1032 235° Southwest  Level FlightAware Approximate
02:49 -23.3257 160.0022 235° Southwest  Level FlightAware Approximate
02:50 -23.3900 159.9012 235° Southwest  Level FlightAware Approximate
02:51 -23.4542 159.8001 235° Southwest  Level FlightAware Approximate
02:52 -23.5184 159.6989 235° Southwest  Level FlightAware Approximate
02:53 -23.5825 159.5975 235° Southwest  Level FlightAware Approximate
02:54 -23.6709 159.5209 236° Southwest  Level Estimated
02:55 -23.7337 159.4185 236° Southwest  Level FlightAware Approximate
02:56 -23.7964 159.3159 236° Southwest  Level FlightAware Approximate
02:57 -23.8590 159.2133 236° Southwest  Level FlightAware Approximate
02:57 -23.9331 159.0355 236° Southwest 36,000  Level Aus ATC (Calculated)
02:58 -23.9963 158.9332 236° Southwest  Level FlightAware Approximate
02:58 -24.0319 158.8757 236° Southwest 36,000  Level Aus ATC (Calculated)
02:59 -24.0596 158.8308 236° Southwest  Level FlightAware Approximate
03:00 -24.1266 158.7220 236° Southwest  Level FlightAware Approximate
03:01 -24.1897 158.6194 236° Southwest  Level FlightAware Approximate
03:02 -24.2527 158.5167 236° Southwest  Level FlightAware Approximate
03:03 -24.3156 158.4140 236° Southwest  Level FlightAware Approximate
03:04 -24.3785 158.3111 236° Southwest  Level FlightAware Approximate
03:05 -24.4412 158.2081 236° Southwest  Level FlightAware Approximate
03:06 -24.5040 158.1050 236° Southwest  Level FlightAware Approximate
03:06 -24.5885 157.9657 237° Southwest 36,000  Level Aus ATC (Calculated)
03:06 -24.6210 157.9119 237° Southwest 36,000  Level Aus ATC (Calculated)
03:08 -24.7075 157.7689 236° Southwest  Level FlightAware Approximate
03:09 -24.7699 157.6653 236° Southwest  Level FlightAware Approximate
03:10 -24.8323 157.5617 236° Southwest  Level FlightAware Approximate
03:11 -24.8946 157.4580 236° Southwest  Level FlightAware Approximate
03:12 -24.9568 157.3541 237° Southwest  Level FlightAware Approximate
03:13 -25.0189 157.2502 237° Southwest  Level FlightAware Approximate
03:14 -25.0809 157.1461 237° Southwest  Level FlightAware Approximate
03:15 -25.1429 157.0419 237° Southwest  Level FlightAware Approximate
03:16 -25.2049 156.9377 237° Southwest  Level FlightAware Approximate
03:16 -25.3326 156.7218 56° Northeast 36,000  Level Aus ATC (Calculated)
03:18 -25.4333 156.5509 237° Southwest  Level FlightAware Approximate
03:18 -25.4609 156.5039 56° Northeast 36,000  Level Aus ATC (Calculated)
03:18 -25.4930 156.4494 56° Northeast 36,000  Level Aus ATC (Calculated)
03:20 -25.5627 156.3305 237° Southwest  Level FlightAware Approximate
03:20 -25.0602 157.1657 237° Southwest 389 448 36,000  Level Aus ATC (RADAR)
03:21 -25.1482 157.0237 236° Southwest 389 448 36,000  Level Aus ATC (RADAR)
03:22 -25.2007 156.9408 235° Southwest 390 449 36,000  Level Aus ATC (RADAR)
03:23 -25.2385 156.8710 239° Southwest 390 449 36,000  Level Aus ATC (RADAR)
03:24 -25.2937 156.7908 233° Southwest 387 445 36,000  Level Aus ATC (RADAR)
03:24 -25.3140 156.7574 236° Southwest 387 445 36,000  Level Aus ATC (RADAR)
03:25 -25.3536 156.6891 237° Southwest 388 447 36,000  Level Aus ATC (RADAR)
03:25 -25.3936 156.6214 237° Southwest 389 448 36,000  Level Aus ATC (RADAR)
03:26 -25.4331 156.5525 238° Southwest 393 452 36,000  Level Aus ATC (RADAR)
03:27 -25.4883 156.4819 229° Southwest 399 459 36,000  Level Aus ATC (RADAR)
03:28 -25.5961 156.3396 230° Southwest 398 458 36,100  Climbing Aus ATC (RADAR)
03:29 -25.6329 156.2927 229° Southwest 399 459 36,100  Level Aus ATC (RADAR)
03:29 -25.6567 156.2610 230° Southwest 398 458 36,100 -120 Level Aus ATC (RADAR)
03:30 -25.6970 156.2090 229° Southwest 404 465 36,000  Descending FlightAware
03:30 -25.7112 156.1910 229° Southwest 398 458 36,100  Climbing Aus ATC (RADAR)
03:30 -25.7310 156.1650 229° Southwest 404 465 36,000 -180 Descending FlightAware
03:31 -25.7558 156.1316 230° Southwest 405 466 36,000  Level FlightAware ADS-B (YPRC)
03:31 -25.7915 156.0843 230° Southwest 405 466 36,000  Level FlightAware ADS-B (YPRC)
03:32 -25.8269 156.0374 230° Southwest 406 467 36,000 60 Level FlightAware ADS-B (YPRC)
03:32 -25.8725 155.9755 230° Southwest 401 461 36,100 120 Climbing Aus ATC (RADAR)
03:32 -25.8785 155.9675 231° Southwest 401 461 36,100 -900 Level Aus ATC (RADAR)
03:32 -25.8710 155.9780 231° Southwest 405 466 36,000 -360 Descending FlightAware
03:33 -25.8997 155.9406 230° Southwest 406 467 36,000  Level FlightAware ADS-B (YPRC)
03:33 -25.9475 155.8769 230° Southwest 406 467 36,000  Level FlightAware ADS-B (YPRC)
03:34 -25.9990 155.8080 230° Southwest 405 466 36,000  Level FlightAware
03:35 -26.0545 155.7337 230° Southwest 406 467 36,000 60 Level FlightAware ADS-B (YPRC)
03:35 -26.0948 155.6802 230° Southwest 400 460 36,100  Climbing Aus ATC (RADAR)
03:35 -26.1006 155.6720 230° Southwest 406 467 36,000 -180 Descending FlightAware ADS-B (YPRC)
03:36 -26.1365 155.6240 230° Southwest 406 467 36,000  Level FlightAware ADS-B (YPRC)
03:37 -26.1849 155.5592 230° Southwest 405 466 36,000  Level FlightAware ADS-B (YPRC)
03:37 -26.2230 155.5078 230° Southwest 404 465 36,000  Level FlightAware ADS-B (YPRC)
03:38 -26.2565 155.4629 230° Southwest 405 466 36,000  Level FlightAware ADS-B (YPRC)
03:38 -26.2946 155.4117 230° Southwest 406 467 36,000  Level FlightAware ADS-B (YPRC)
03:39 -26.3310 155.3626 230° Southwest 406 467 36,000  Level FlightAware ADS-B (YPRC)
03:39 -26.3701 155.3098 230° Southwest 406 467 36,000  Level FlightAware ADS-B (YPRC)
03:40 -26.4047 155.2631 230° Southwest 408 470 36,000  Level FlightAware ADS-B (YPRC)
03:40 -26.4423 155.2121 230° Southwest 408 470 36,000  Level FlightAware ADS-B (YPRC)
03:41 -26.4781 155.1638 230° Southwest 407 468 36,000  Level FlightAware ADS-B (YPRC)
03:41 -26.5255 155.0995 230° Southwest 407 468 36,000  Level FlightAware ADS-B (YPRC)
03:42 -26.5605 155.0519 231° Southwest 407 468 36,000  Level FlightAware ADS-B (YPRC)
03:42 -26.5961 155.0036 231° Southwest 407 468 36,000  Level FlightAware ADS-B (YPRC)
03:43 -26.6340 154.9520 231° Southwest 405 466 36,000  Level FlightAware
03:43 -26.6451 154.9371 230° Southwest 406 467 36,000  Level FlightAware ADS-B (YPRC)
03:43 -26.6793 154.8903 231° Southwest 405 466 36,000  Level FlightAware ADS-B (YPRC)
03:44 -26.7167 154.8392 231° Southwest 404 465 36,000  Level FlightAware ADS-B (YPRC)
03:44 -26.7502 154.7937 230° Southwest 403 464 36,000  Level FlightAware ADS-B (YPRC)
03:45 -26.7879 154.7422 231° Southwest 402 463 36,000  Level FlightAware ADS-B (YPRC)
03:45 -26.8265 154.6893 231° Southwest 395 455 36,000  Level FlightAware ADS-B (NZNE)
03:46 -26.8618 154.6408 231° Southwest 395 455 36,000  Level FlightAware ADS-B (NZNE)
03:46 -26.8885 154.6040 231° Southwest 395 455 36,000  Level FlightAware ADS-B (NZNE)
03:47 -26.9266 154.5517 231° Southwest 400 460 36,000  Level FlightAware ADS-B (YPRC)
03:47 -26.9606 154.5051 231° Southwest 400 460 36,000  Level FlightAware ADS-B (YPRC)
03:48 -26.9870 154.4689 231° Southwest 395 455 36,000  Level FlightAware ADS-B (NZNE)
03:48 -27.0022 154.4480 231° Southwest 395 455 36,000  Level FlightAware ADS-B (NZNE)
03:48 -27.0257 154.4158 231° Southwest 395 455 36,000  Level FlightAware ADS-B (NZNE)
03:49 -27.0685 154.3566 231° Southwest 403 464 36,000  Level FlightAware ADS-B (YPRC)
03:50 -27.1153 154.2921 231° Southwest 405 466 36,000  Level FlightAware ADS-B (YPRC)
03:50 -27.1502 154.2441 231° Southwest 405 466 36,000  Level FlightAware ADS-B (YPRC)
03:51 -27.1866 154.1936 231° Southwest 407 468 36,000  Level FlightAware ADS-B (YPRC)
03:51 -27.2335 154.1286 231° Southwest 409 471 36,000  Level FlightAware ADS-B (YPRC)
03:52 -27.2699 154.0781 231° Southwest 411 473 36,000  Level FlightAware ADS-B (YPRC)
03:52 -27.3177 154.0116 231° Southwest 413 475 36,000  Level FlightAware ADS-B (YPRC)
03:53 -27.3541 153.9611 231° Southwest 415 478 36,000  Level FlightAware ADS-B (YPRC)
03:53 -27.3926 153.9075 231° Southwest 416 479 36,000  Level FlightAware ADS-B (NZNE)
03:54 -27.4310 153.8540 231° Southwest 417 480 36,000  Level FlightAware ADS-B (NZNE)
03:54 -27.4672 153.8033 231° Southwest 417 480 36,000  Level FlightAware ADS-B (NZNE)
03:55 -27.5109 153.7423 231° Southwest 418 481 36,000  Level FlightAware ADS-B (YPRC)
03:56 -27.5471 153.6915 231° Southwest 419 482 36,000  Level FlightAware ADS-B (YPRC)
03:56 -27.5819 153.6428 231° Southwest 419 482 36,000  Level FlightAware ADS-B (YPRC)
03:57 -27.6246 153.5830 231° Southwest 419 482 36,000  Level FlightAware ADS-B (NZNE)
03:57 -27.6611 153.5317 231° Southwest 418 481 36,000  Level FlightAware ADS-B (NZNE)
03:58 -27.6972 153.4808 231° Southwest 419 482 36,000  Level FlightAware ADS-B (NZNE)
03:58 -27.7340 153.4290 231° Southwest 419 482 36,000  Level FlightAware ADS-B (NZNE)
03:59 -27.7765 153.3690 231° Southwest 420 483 36,000  Level FlightAware ADS-B (YPRC)
03:59 -27.8135 153.3168 231° Southwest 423 487 36,000  Level FlightAware ADS-B (YPRC)
04:00 -27.8501 153.2652 231° Southwest 424 488 36,000  Level FlightAware ADS-B (YPRC)
04:00 -27.8869 153.2132 231° Southwest 425 489 36,000  Level FlightAware ADS-B (YPRC)
04:01 -27.9349 153.1450 231° Southwest 426 490 36,000  Level FlightAware ADS-B (YPRC)
04:01 -27.9731 153.0909 231° Southwest 426 490 36,000  Level FlightAware ADS-B (YPRC)
04:02 -28.0092 153.0396 231° Southwest 425 489 36,000  Level FlightAware ADS-B (YPRC)
04:02 -28.0513 152.9797 231° Southwest 423 487 36,000  Level FlightAware ADS-B (NZNE)
04:03 -28.0893 152.9294 229° Southwest 424 488 36,000  Level FlightAware ADS-B (NZNE)
04:03 -28.1354 152.8851 220° Southwest 430 495 36,000  Level FlightAware ADS-B (NZNE)
04:04 -28.1835 152.8432 217° Southwest 431 496 36,000  Level FlightAware ADS-B (NZNE)
04:04 -28.2315 152.8014 218° Southwest 432 497 36,000  Level FlightAware ADS-B (NZNE)
04:05 -28.2789 152.7603 217° Southwest 431 496 36,000  Level FlightAware ADS-B (NZNE)
04:06 -28.3381 152.7085 218° Southwest 437 503 36,000  Level FlightAware ADS-B (YPRC)
04:06 -28.3437 152.7036 218° Southwest 431 496 36,000  Level FlightAware ADS-B (NZNE)
04:06 -28.3921 152.6609 218° Southwest 431 496 36,000  Level FlightAware ADS-B (NZNE)
04:07 -28.4397 152.6192 218° Southwest 432 497 36,000  Level FlightAware ADS-B (NZNE)
04:07 -28.4886 152.5764 218° Southwest 432 497 36,000  Level FlightAware ADS-B (NZNE)
04:08 -28.5425 152.5294 217° Southwest 438 504 36,000 420 Level FlightAware ADS-B (YPRC)
04:08 -28.6005 152.4782 218° Southwest 435 501 36,500 900 Climbing FlightAware ADS-B (NZNE)
04:09 -28.6548 152.4305 218° Southwest 433 498 37,100 960 Climbing FlightAware ADS-B (YPRC)
04:09 -28.7024 152.3884 218° Southwest 427 491 37,600 1,140 Climbing FlightAware ADS-B (YPRC)
04:10 -28.7225 152.3706 218° Southwest 417 480 37,900 480 Climbing FlightAware ADS-B (NZNE)
04:10 -28.7764 152.3227 218° Southwest 424 488 38,000 60 Climbing FlightAware ADS-B (YPRC)
04:11 -28.8280 152.2768 218° Southwest 425 489 38,000  Level FlightAware ADS-B (YPRC)
04:11 -28.8894 152.2225 218° Southwest 428 493 38,000  Level FlightAware ADS-B (YPRC)
04:12 -28.9316 152.1852 218° Southwest 428 493 38,000  Level FlightAware ADS-B (YPRC)
04:12 -28.9835 152.1393 218° Southwest 428 493 38,000  Level FlightAware ADS-B (YPRC)
04:13 -29.0302 152.0977 218° Southwest 430 495 38,000  Level FlightAware ADS-B (YPRC)
04:13 -29.0765 152.0566 218° Southwest 433 498 38,000 60 Level FlightAware ADS-B (YPRC)
04:14 -29.1267 152.0116 218° Southwest 431 496 38,100  Climbing Aus ATC (RADAR)
04:14 -29.1487 151.9922 218° Southwest 431 496 38,000 -180 Descending FlightAware ADS-B (YPRC)
04:15 -29.2021 151.9445 218° Southwest 433 498 38,000  Level FlightAware ADS-B (YPRC)
04:15 -29.2452 151.9060 218° Southwest 433 498 38,000  Level FlightAware ADS-B (YPRC)
04:16 -29.2982 151.8586 218° Southwest 432 497 38,000  Level FlightAware ADS-B (YPRC)
04:16 -29.3608 151.8022 218° Southwest 433 498 38,000 60 Level FlightAware ADS-B (YPRC)
04:17 -29.4261 151.7441 218° Southwest 433 498 38,100  Climbing Aus ATC (RADAR)
04:17 -29.4480 151.7240 218° Southwest 434 499 38,000 -240 Descending FlightAware
04:18 -29.4725 151.7020 218° Southwest 436 502 38,000  Level FlightAware ADS-B (YPRC)
04:18 -29.5352 151.6456 218° Southwest 433 498 38,000  Level FlightAware ADS-B (YPRC)
04:19 -29.5975 151.5891 218° Southwest 431 496 38,000  Level FlightAware ADS-B (YPRC)
04:20 -29.6596 151.5330 218° Southwest 430 495 38,000  Level FlightAware ADS-B (YPRC)
04:20 -29.7040 151.4927 218° Southwest 430 495 38,000  Level FlightAware ADS-B (YPRC)
04:21 -29.7536 151.4479 218° Southwest 434 499 38,000  Level FlightAware ADS-B (YPRC)
04:21 -29.8160 151.3915 218° Southwest 432 497 38,000  Level FlightAware ADS-B (YPRC)
04:22 -29.8648 151.3470 218° Southwest 430 495 38,000 -120 Level FlightAware ADS-B (YPRC)
04:22 -29.9111 151.3051 218° Southwest 423 487 37,900  Descending Aus ATC (RADAR)
04:23 -29.9561 151.2638 218° Southwest 414 476 38,000 60 Climbing FlightAware ADS-B (YPRC)
04:23 -30.0124 151.2123 218° Southwest 411 473 38,000  Level FlightAware ADS-B (YPRC)
04:24 -30.0612 151.1679 218° Southwest 406 467 38,000  Level FlightAware ADS-B (YPRC)
04:25 -30.1141 151.1195 218° Southwest 399 459 38,000  Level FlightAware ADS-B (YPRC)
04:25 -30.1598 151.0775 218° Southwest 401 461 38,000  Level FlightAware ADS-B (YPRC)
04:26 -30.2074 151.0337 219° Southwest 406 467 38,000  Level FlightAware ADS-B (YPRC)
04:27 -30.2850 150.9630 218° Southwest 405 466 38,000  Level FlightAware
04:27 -30.3320 150.9210 218° Southwest 405 466 38,000  Level FlightAware
04:28 -30.3770 150.8800 218° Southwest 405 466 38,000  Level FlightAware
04:28 -30.4597 150.8022 218° Southwest 415 478 38,000  Level Aus ATC (RADAR)
04:28 -30.4220 150.8390 218° Southwest 405 466 38,000  Level FlightAware
04:29 -30.5127 150.7532 218° Southwest 419 482 38,000  Level Aus ATC (RADAR)
04:29 -30.4670 150.7990 218° Southwest 405 466 38,000  Level FlightAware
04:30 -30.5120 150.7580 218° Southwest 405 466 38,000  Level FlightAware
04:30 -30.5580 150.7170 218° Southwest 405 466 38,000  Level FlightAware
04:31 -30.6741 150.6019 218° Southwest 407 468 38,000  Level Aus ATC (RADAR)
04:31 -30.6030 150.6760 218° Southwest 405 466 38,000  Level FlightAware
04:31 -30.6480 150.6350 218° Southwest 405 466 38,000  Level FlightAware
04:32 -30.7800 150.5040 220° Southwest 419 482 38,000  Level FlightAware
04:33 -30.8340 150.4540 218° Southwest 419 482 38,000  Level FlightAware
04:33 -30.8820 150.4090 219° Southwest 419 482 38,000  Level FlightAware
04:34 -30.9630 150.3340 218° Southwest 417 480 38,000  Level FlightAware
04:35 -31.0390 150.2620 219° Southwest 416 479 38,000  Level FlightAware
04:35 -31.0930 150.2110 219° Southwest 416 479 38,000  Level FlightAware
04:36 -31.1460 150.1620 218° Southwest 417 480 38,000  Level FlightAware
04:37 -31.2000 150.1100 219° Southwest 418 481 38,000  Level FlightAware
04:37 -31.2522 150.0611 219° Southwest 412 474 38,000  Level Aus ATC (RADAR)
04:37 -31.2510 150.0620 219° Southwest 417 480 38,000  Level FlightAware
04:38 -31.3060 150.0110 218° Southwest 417 480 38,000  Level FlightAware
04:38 -31.3550 149.9630 220° Southwest 418 481 38,000  Level FlightAware
04:39 -31.4100 149.9120 218° Southwest 417 480 38,000  Level FlightAware
04:40 -31.4620 149.8620 219° Southwest 418 481 38,000  Level FlightAware
04:40 -31.5148 149.8124 219° Southwest 414 476 38,000  Level Aus ATC (RADAR)
04:40 -31.5150 149.8120 219° Southwest 420 483 38,000  Level FlightAware
04:41 -31.5640 149.7650 219° Southwest 418 481 38,000  Level FlightAware
04:41 -31.5677 149.7618 219° Southwest 415 478 38,000  Level Aus ATC (RADAR)
04:41 -31.6180 149.7140 219° Southwest 422 486 38,000  Level FlightAware
04:41 -31.6214 149.7106 219° Southwest 421 484 38,000  Level Aus ATC (RADAR)
04:42 -31.6710 149.6630 219° Southwest 422 486 38,000  Level FlightAware
04:42 -31.7330 149.6040 219° Southwest 425 489 38,000  Level FlightAware
04:43 -31.7840 149.5550 219° Southwest 425 489 38,000  Level FlightAware
04:44 -31.8390 149.5030 219° Southwest 433 498 38,000  Level FlightAware
04:44 -31.8930 149.4510 219° Southwest 435 501 38,000  Level FlightAware
04:45 -31.9470 149.3980 220° Southwest 436 502 38,000  Level FlightAware
04:45 -32.0030 149.3450 219° Southwest 437 503 38,000  Level FlightAware
04:46 -32.0570 149.2920 220° Southwest 437 503 38,000  Level FlightAware
04:47 -32.1120 149.2400 219° Southwest 420 483 38,000  Level FlightAware
04:47 -32.1630 149.1900 220° Southwest 419 482 38,000  Level FlightAware
04:48 -32.2150 149.1390 220° Southwest 420 483 38,000  Level FlightAware
04:48 -32.2680 149.0870 220° Southwest 419 482 38,000  Level FlightAware
04:49 -32.3210 149.0360 219° Southwest 417 480 38,000  Level FlightAware
04:49 -32.3730 148.9850 220° Southwest 415 478 38,000  Level FlightAware
04:50 -32.4250 148.9350 219° Southwest 414 476 38,000  Level FlightAware
04:51 -32.4760 148.8840 220° Southwest 414 476 38,000  Level FlightAware
04:51 -32.5280 148.8340 219° Southwest 416 479 38,000  Level FlightAware
04:52 -32.5800 148.7830 220° Southwest 418 481 38,000  Level FlightAware
04:52 -32.6330 148.7300 220° Southwest 418 481 38,000  Level FlightAware
04:53 -32.6840 148.6800 220° Southwest 419 482 38,000  Level FlightAware
04:53 -32.6904 148.6743 220° Southwest 419 482 38,000  Level Aus ATC (RADAR)
04:54 -32.7350 148.6300 220° Southwest 418 481 38,000  Level FlightAware
04:54 -32.7890 148.5770 220° Southwest 420 483 38,000  Level FlightAware
04:55 -32.8490 148.5180 220° Southwest 421 484 38,000  Level FlightAware
04:55 -32.9090 148.4580 220° Southwest 423 487 38,000  Level FlightAware
04:56 -32.9540 148.4140 219° Southwest 423 487 38,000  Level FlightAware
04:57 -33.0060 148.3620 220° Southwest 425 489 38,000  Level FlightAware
04:57 -33.0580 148.3100 220° Southwest 425 489 38,000  Level FlightAware
04:58 -33.1100 148.2590 220° Southwest 426 490 38,000  Level FlightAware
04:58 -33.1166 148.2521 220° Southwest 422 486 38,000  Level Aus ATC (RADAR)
04:58 -33.1650 148.2050 219° Southwest 429 494 38,000  Level FlightAware
04:59 -33.2210 148.1540 217° Southwest 429 494 38,000  Level FlightAware
04:59 -33.2760 148.1040 217° Southwest 429 494 38,000 300 Level FlightAware
04:59 -33.2806 148.0994 217° Southwest 426 490 38,200  Climbing Aus ATC (RADAR)
05:00 -33.3300 148.0540 217° Southwest 430 495 38,000 -180 Descending FlightAware
05:00 -33.3356 148.0488 217° Southwest 426 490 38,100  Climbing Aus ATC (RADAR)
05:01 -33.3940 147.9940 218° Southwest 429 494 38,000 -120 Descending FlightAware
05:01 -33.4420 147.9500 218° Southwest 429 494 38,000 360 Level FlightAware
05:01 -33.4454 147.9470 218° Southwest 426 490 38,200  Climbing Aus ATC (RADAR)
05:02 -33.4970 147.8980 218° Southwest 431 496 38,000 -180 Descending FlightAware
05:02 -33.5002 147.8959 218° Southwest 426 490 38,100  Climbing Aus ATC (RADAR)
05:02 -33.5520 147.8480 217° Southwest 431 496 38,000 -120 Descending FlightAware
05:03 -33.6070 147.7960 217° Southwest 431 496 38,000 300 Level FlightAware
05:03 -33.6101 147.7933 217° Southwest 427 491 38,200  Climbing Aus ATC (RADAR)
05:04 -33.6690 147.7380 217° Southwest 431 496 38,000 -300 Descending FlightAware
05:04 -33.6739 147.7340 217° Southwest 429 494 38,000  Level Aus ATC (RADAR)
05:04 -33.7170 147.6930 218° Southwest 430 495 38,000  Level FlightAware
05:05 -33.7720 147.6420 218° Southwest 430 495 38,000  Level FlightAware
05:05 -33.8280 147.5890 218° Southwest 430 495 38,000  Level FlightAware
05:06 -33.8830 147.5380 218° Southwest 428 493 38,000  Level FlightAware
05:07 -33.9440 147.4800 218° Southwest 428 493 38,000  Level FlightAware
05:07 -33.9910 147.4360 218° Southwest 428 493 38,000  Level FlightAware
05:08 -34.0450 147.3840 219° Southwest 427 491 38,000  Level FlightAware
05:08 -34.0954 147.3372 219° Southwest 423 487 38,000  Level Aus ATC (RADAR)
05:08 -34.1000 147.3320 219° Southwest 427 491 38,000  Level FlightAware
05:09 -34.1503 147.2855 219° Southwest 428 493 38,000  Level Aus ATC (RADAR)
05:09 -34.1540 147.2810 219° Southwest 427 491 38,000  Level FlightAware
05:09 -34.2090 147.2290 218° Southwest 429 494 38,000  Level FlightAware
05:10 -34.2640 147.1770 218° Southwest 430 495 38,000  Level FlightAware
05:11 -34.3240 147.1190 219° Southwest 430 495 38,000  Level FlightAware
05:11 -34.3730 147.0730 218° Southwest 432 497 38,000  Level FlightAware
05:12 -34.4270 147.0210 218° Southwest 433 498 38,000  Level FlightAware
05:12 -34.4850 146.9660 218° Southwest 435 501 38,000  Level FlightAware
05:13 -34.5380 146.9140 219° Southwest 434 499 38,000  Level FlightAware
05:13 -34.5920 146.8620 218° Southwest 420 483 38,000  Level FlightAware
05:14 -34.6480 146.8090 218° Southwest 413 475 38,000  Level FlightAware
05:15 -34.7000 146.7580 219° Southwest 412 474 38,000  Level FlightAware
05:15 -34.7540 146.7060 218° Southwest 412 474 38,000  Level FlightAware
05:16 -34.8088 146.6551 218° Southwest 420 483 38,000  Level Aus ATC (RADAR)
05:16 -34.8060 146.6560 218° Southwest 415 478 38,000  Level FlightAware
05:16 -34.8660 146.5970 219° Southwest 417 480 38,000  Level FlightAware
05:17 -34.9130 146.5520 218° Southwest 420 483 38,000  Level FlightAware
05:18 -34.9660 146.5010 218° Southwest 421 484 38,000  Level FlightAware
05:18 -35.0210 146.4470 219° Southwest 422 486 38,000  Level FlightAware
05:19 -35.0830 146.3860 219° Southwest 430 495 38,000  Level FlightAware
05:19 -35.1310 146.3390 219° Southwest 430 495 38,000  Level FlightAware
05:20 -35.1850 146.2870 218° Southwest 416 479 38,000  Level FlightAware
05:20 -35.2340 146.2380 219° Southwest 382 440 38,000  Level FlightAware
05:21 -35.2890 146.1840 219° Southwest 379 436 38,000  Level FlightAware
05:22 -35.3310 146.1420 219° Southwest 380 437 38,000  Level FlightAware
05:22 -35.3800 146.0950 218° Southwest 378 435 38,000  Level FlightAware
05:23 -35.4280 146.0470 219° Southwest 377 434 38,000  Level FlightAware
05:23 -35.4830 145.9920 219° Southwest 377 434 38,000  Level FlightAware
05:24 -35.5240 145.9520 218° Southwest 375 432 38,000  Level FlightAware
05:25 -35.5720 145.9040 219° Southwest 374 430 38,000  Level FlightAware
05:25 -35.6160 145.8600 219° Southwest 378 435 38,000  Level FlightAware
05:26 -35.6670 145.8100 219° Southwest 379 436 38,000  Level FlightAware
05:26 -35.7150 145.7620 219° Southwest 377 434 38,000  Level FlightAware
05:27 -35.7630 145.7140 219° Southwest 376 433 38,000  Level FlightAware
05:28 -35.8170 145.6600 219° Southwest 376 433 38,000  Level FlightAware
05:28 -35.8570 145.6200 219° Southwest 376 433 38,000 -120 Level FlightAware
05:29 -35.9050 145.5720 219° Southwest 372 428 37,900 -180 Descending FlightAware
05:29 -35.9130 145.5680 219° Southwest 373 429 37,900 -1,680 Level Aus ATC (RADAR)
05:29 -35.9590 145.5229 219° Southwest 360 414 36,900 -1,500 Descending Aus ATC (RADAR)
05:29 -35.9540 145.5220 219° Southwest 355 409 37,000 -1,080 Climbing FlightAware
05:30 -35.9980 145.4780 219° Southwest 351 404 36,300 -1,560 Descending FlightAware
05:30 -36.0430 145.4330 219° Southwest 353 406 35,200 -1,740 Descending FlightAware
05:31 -36.0860 145.3890 220° Southwest 341 392 34,300 -1,380 Descending FlightAware
05:32 -36.1290 145.3460 219° Southwest 331 381 33,600 -1,320 Descending FlightAware
05:32 -36.1690 145.3050 220° Southwest 314 361 32,800 -1,560 Descending FlightAware
05:33 -36.2090 145.2650 219° Southwest 317 365 31,800 -1,680 Descending FlightAware
05:33 -36.2490 145.2240 220° Southwest 316 364 30,900 -1,440 Descending FlightAware
05:34 -36.2930 145.1790 219° Southwest 300 345 30,000 -1,440 Descending FlightAware
05:35 -36.3310 145.1410 219° Southwest 293 337 29,100 -1,560 Descending FlightAware
05:35 -36.3690 145.1020 220° Southwest 294 338 28,200 -1,800 Descending FlightAware
05:36 -36.4160 145.0540 219° Southwest 295 339 26,700 -2,040 Descending FlightAware
05:36 -36.4540 145.0150 220° Southwest 295 339 25,500 -1,920 Descending FlightAware
05:37 -36.4910 144.9770 220° Southwest 293 337 24,500 -1,680 Descending FlightAware
05:38 -36.5220 144.9450 220° Southwest 294 338 23,700 -1,260 Descending FlightAware
05:38 -36.5580 144.9079 220° Southwest 289 333 23,200 -1,440 Descending Aus ATC (RADAR)
05:38 -36.5630 144.9030 220° Southwest 279 321 22,800 -1,860 Descending FlightAware
05:39 -36.5990 144.8660 220° Southwest 275 316 21,900 -1,800 Descending FlightAware
05:39 -36.6350 144.8290 220° Southwest 282 325 20,700 -1,980 Descending FlightAware
05:40 -36.6640 144.7990 220° Southwest 282 325 19,800 -1,560 Descending FlightAware
05:41 -36.7060 144.7560 219° Southwest 273 314 18,900 -960 Descending FlightAware
05:41 -36.7400 144.7210 220° Southwest 255 293 18,600 -780 Descending FlightAware
05:42 -36.7660 144.6940 220° Southwest 247 284 18,100 -1,500 Descending FlightAware
05:42 -36.8020 144.6580 219° Southwest 244 281 16,900 -1,800 Descending FlightAware
05:42 -36.8130 144.6540 196° South 249 287 16,600 -2,100 Descending FlightAware
05:43 -36.8250 144.6550 176° South 260 299 16,200 -2,100 Descending FlightAware
05:43 -36.8660 144.6640 170° South 261 300 15,100 -1,560 Descending FlightAware
05:44 -36.9120 144.6580 186° South 228 262 14,300 -1,380 Descending FlightAware
05:44 -36.9410 144.6270 221° Southwest 231 266 13,400 -1,260 Descending FlightAware
05:45 -36.9720 144.5930 221° Southwest 214 246 12,800 -900 Descending FlightAware
05:46 -36.9980 144.5730 212° Southwest 219 252 12,400 -840 Descending FlightAware
05:46 -37.0280 144.5820 167° South 252 290 12,000 -960 Descending FlightAware
05:47 -37.0580 144.6140 140° Southeast 253 291 11,400 -1,200 Descending FlightAware
05:47 -37.0910 144.6490 140° Southeast 254 292 10,600 -1,200 Descending FlightAware
05:48 -37.1210 144.6810 140° Southeast 259 298 10,000 -1,140 Descending FlightAware
05:48 -37.1400 144.7010 140° Southeast 258 297 9,600 -1,500 Descending FlightAware
05:49 -37.1590 144.7210 140° Southeast 254 292 9,000 -1,380 Descending FlightAware
05:49 -37.1690 144.7290 147° Southeast 250 288 8,900 -1,020 Descending FlightAware
05:49 -37.1900 144.7360 165° South 232 267 8,500 -1,200 Descending FlightAware
05:49 -37.2070 144.7400 169° South 232 267 8,200 -1,080 Descending FlightAware
05:50 -37.2320 144.7450 171° South 240 276 7,800 -1,140 Descending FlightAware
05:50 -37.2530 144.7500 169° South 239 275 7,400 -1,200 Descending FlightAware
05:50 -37.2760 144.7540 172° South 245 282 7,000 -1,320 Descending FlightAware
05:51 -37.3040 144.7610 169° South 246 283 6,400 -1,380 Descending FlightAware
05:51 -37.3260 144.7660 170° South 241 277 6,000 -1,140 Descending FlightAware
05:52 -37.3670 144.7750 170° South 230 265 5,400 -900 Descending FlightAware
05:52 -37.3890 144.7800 170° South 214 246 5,200 -480 Descending FlightAware
05:52 -37.4070 144.7850 168° South 198 228 5,100 -780 Descending FlightAware
05:53 -37.4250 144.7890 170° South 199 229 4,700 -1,080 Descending FlightAware
05:53 -37.4420 144.7930 169° South 196 226 4,400 -1,080 Descending FlightAware
05:54 -37.4650 144.7990 168° South 193 222 3,900 -1,080 Descending FlightAware
05:54 -37.4820 144.8030 169° South 184 212 3,600 -900 Descending FlightAware
05:54 -37.4980 144.8050 174° South 179 206 3,300 -960 Descending FlightAware
05:55 -37.5140 144.8080 172° South 178 205 3,000 -960 Descending FlightAware
05:55 -37.5370 144.8140 168° South 161 185 2,500 -960 Descending FlightAware
05:55 -37.5510 144.8160 174° South 148 170 2,200 -600 Descending FlightAware
05:56 -37.5630 144.8180 172° South 146 168 2,100 -540 Descending FlightAware
05:56 -37.5720 144.8200 170° South 145 167 1,900 -960 Descending FlightAware
05:56 -37.5940 144.8240 172° South 156 180 1,400 -1,020 Descending FlightAware
05:57 -37.6080 144.8270 170° South 152 175 1,100 -780 Descending FlightAware
05:57 -37.6210 144.8290 173° South 152 175 900 -420 Descending FlightAware
05:58 -37.6500 144.8350 171° South 151 174 700 -300 Descending FlightAware